.
WxDataArchive / Data Records for 2008-02-08
2008-02-07 February 2008 2008-02-09

Data Records for Friday, 08 February 2008

Time	Temp	Chill	HIndex	Humid	Dewpt	 Wind 	HiWind	WindDir	Rain 	Barom 
-----	----	-----	------	-----	-----	------	------	-------	-----	----- 
00:00	29.5	29.5	29.5	86	25.8	0	1	248	0.00	29.876 
00:05	29.5	29.5	29.5	87	26.1	0	1	248	0.00	29.876 
00:10	29.5	29.5	29.5	87	26.1	0	2	248	0.00	29.874 
00:15	29.5	29.5	29.5	87	26.1	0	2	248	0.00	29.871 
00:20	29.5	29.5	29.5	87	26.1	0	1	248	0.00	29.868 
00:25	29.4	29.4	29.4	87	26.0	0	2	248	0.00	29.866 
00:30	29.4	29.4	29.4	87	26.0	0	1	248	0.00	29.863 
00:35	29.4	29.4	29.4	87	26.0	0	1	248	0.00	29.861 
00:40	29.4	29.4	29.4	87	26.0	0	1	248	0.00	29.860 
00:45	29.4	29.4	29.4	87	26.0	0	1	248	0.00	29.860 
00:50	29.4	29.4	29.4	88	26.3	0	0	---	0.00	29.859 
00:55	29.4	29.4	29.4	88	26.3	0	0	---	0.00	29.858 
01:00	29.4	29.4	29.4	88	26.3	0	1	248	0.00	29.855 
01:05	29.4	29.4	29.4	88	26.3	0	1	248	0.00	29.853 
01:10	29.4	29.4	29.4	88	26.3	0	2	248	0.00	29.854 
01:15	29.4	29.4	29.4	88	26.3	0	1	248	0.00	29.851 
01:20	29.3	29.3	29.3	88	26.2	0	1	248	0.00	29.849 
01:25	29.4	29.4	29.4	88	26.3	0	2	248	0.00	29.851 
01:30	29.3	29.3	29.3	88	26.2	0	0	---	0.00	29.849 
01:35	29.4	29.4	29.4	88	26.3	0	1	248	0.00	29.849 
01:40	29.4	29.4	29.4	88	26.3	0	0	---	0.00	29.846 
01:45	29.3	29.3	29.3	88	26.2	0	1	248	0.00	29.846 
01:50	29.3	29.3	29.3	89	26.5	0	1	248	0.00	29.847 
01:55	29.3	29.3	29.3	89	26.5	0	1	248	0.00	29.846 
02:00	29.3	29.3	29.3	89	26.5	0	1	248	0.00	29.847 
02:05	29.3	29.3	29.3	89	26.5	0	1	248	0.00	29.846 
02:10	29.3	29.3	29.3	89	26.5	0	2	248	0.00	29.846 
02:15	29.4	29.4	29.4	89	26.6	0	3	248	0.00	29.846 
02:20	29.4	29.4	29.4	89	26.6	0	1	248	0.00	29.847 
02:25	29.4	29.4	29.4	89	26.6	0	1	248	0.00	29.848 
02:30	29.4	29.4	29.4	89	26.6	0	1	202	0.00	29.853 
02:35	29.4	29.4	29.4	89	26.6	0	1	202	0.00	29.854 
02:40	29.4	29.4	29.4	89	26.6	0	1	202	0.00	29.855 
02:45	29.4	29.4	29.4	89	26.6	0	1	202	0.00	29.855 
02:50	29.4	29.4	29.4	89	26.6	0	2	202	0.00	29.856 
02:55	29.4	29.4	29.4	89	26.6	0	1	202	0.00	29.858 
03:00	29.4	29.4	29.4	89	26.6	0	1	202	0.00	29.858 
03:05	29.4	29.4	29.4	89	26.6	0	2	202	0.00	29.858 
03:10	29.4	29.4	29.4	89	26.6	0	3	248	0.00	29.859 
03:15	29.5	29.5	29.5	89	26.7	0	2	248	0.00	29.862 
03:20	29.5	29.5	29.5	89	26.7	0	2	248	0.00	29.862 
03:25	29.5	29.5	29.5	89	26.7	0	1	248	0.00	29.862 
03:30	29.7	29.7	29.7	89	26.9	1	3	248	0.00	29.863 
03:35	29.7	29.7	29.7	89	26.9	0	2	248	0.00	29.862 
03:40	29.7	29.7	29.7	89	26.9	0	2	248	0.00	29.862 
03:45	29.7	29.7	29.7	89	26.9	0	1	248	0.00	29.861 
03:50	29.7	29.7	29.7	90	27.1	0	1	248	0.00	29.863 
03:55	29.7	29.7	29.7	90	27.1	0	1	248	0.00	29.865 
04:00	29.7	29.7	29.7	90	27.1	0	3	248	0.00	29.864 
04:05	29.7	29.7	29.7	90	27.1	0	3	248	0.00	29.861 
04:10	29.7	29.7	29.7	90	27.1	0	2	248	0.00	29.860 
04:15	29.7	29.7	29.7	90	27.1	0	2	248	0.00	29.860 
04:20	29.8	29.8	29.8	90	27.2	1	3	68	0.00	29.859 
04:25	29.8	29.8	29.8	90	27.2	1	3	248	0.00	29.860 
04:30	29.8	29.8	29.8	90	27.2	1	4	248	0.00	29.860 
04:35	29.8	29.8	29.8	90	27.2	0	1	225	0.00	29.859 
04:40	29.8	29.8	29.8	90	27.2	0	2	225	0.00	29.859 
04:45	29.8	29.8	29.8	90	27.2	0	1	225	0.00	29.859 
04:50	29.8	29.8	29.8	90	27.2	0	1	225	0.00	29.859 
04:55	29.8	29.8	29.8	90	27.2	0	1	225	0.00	29.859 
05:00	29.8	29.8	29.8	90	27.2	0	1	225	0.00	29.860 
05:05	29.8	29.8	29.8	90	27.2	0	2	225	0.00	29.860 
05:10	29.8	29.8	29.8	90	27.2	0	2	225	0.00	29.859 
05:15	29.8	29.8	29.8	90	27.2	0	1	225	0.00	29.862 
05:20	29.8	29.8	29.8	91	27.5	0	1	225	0.00	29.864 
05:25	29.8	29.8	29.8	91	27.5	0	1	225	0.00	29.863 
05:30	29.8	29.8	29.8	91	27.5	0	1	225	0.00	29.861 
05:35	29.8	29.8	29.8	91	27.5	0	1	225	0.00	29.860 
05:40	29.8	29.8	29.8	91	27.5	0	1	225	0.00	29.860 
05:45	30.0	30.0	30.0	91	27.7	1	3	248	0.00	29.862 
05:50	30.0	30.0	30.0	90	27.4	0	2	248	0.00	29.861 
05:55	30.0	30.0	30.0	90	27.4	0	4	248	0.00	29.861 
06:00	30.0	30.0	30.0	90	27.4	1	3	270	0.00	29.861 
06:05	30.1	30.1	30.1	90	27.5	1	3	248	0.00	29.860 
06:10	30.1	30.1	30.1	89	27.3	1	5	270	0.00	29.861 
06:15	30.1	30.1	30.1	89	27.3	1	5	248	0.00	29.860 
06:20	30.1	30.1	30.1	88	27.0	1	3	248	0.00	29.860 
06:25	30.1	30.1	30.1	88	27.0	0	2	248	0.00	29.860 
06:30	30.1	30.1	30.1	88	27.0	0	2	248	0.00	29.859 
06:35	30.1	30.1	30.1	88	27.0	0	3	248	0.00	29.858 
06:40	30.1	30.1	30.1	88	27.0	0	2	248	0.00	29.859 
06:45	30.1	30.1	30.1	88	27.0	0	2	248	0.00	29.862 
06:50	30.1	30.1	30.1	88	27.0	0	1	248	0.00	29.863 
06:55	30.1	30.1	30.1	88	27.0	0	1	248	0.00	29.865 
07:00	30.1	30.1	30.1	88	27.0	0	2	248	0.00	29.864 
07:05	30.1	30.1	30.1	89	27.3	0	2	248	0.00	29.866 
07:10	30.1	30.1	30.1	89	27.3	0	3	248	0.00	29.867 
07:15	30.1	30.1	30.1	89	27.3	0	2	248	0.00	29.867 
07:20	30.1	30.1	30.1	89	27.3	1	3	248	0.00	29.871 
07:25	30.1	30.1	30.1	89	27.3	0	1	248	0.00	29.873 
07:30	30.1	30.1	30.1	89	27.3	0	3	248	0.00	29.874 
07:35	30.1	30.1	30.1	90	27.5	0	2	248	0.00	29.874 
07:40	30.1	30.1	30.1	90	27.5	0	2	248	0.00	29.876 
07:45	30.1	30.1	30.1	90	27.5	0	3	202	0.00	29.878 
07:50	30.1	30.1	30.1	90	27.5	0	2	202	0.00	29.880 
07:55	30.0	30.0	30.0	90	27.4	1	3	225	0.00	29.886 
08:00	30.0	30.0	30.0	89	27.2	1	4	248	0.00	29.888 
08:05	30.0	30.0	30.0	89	27.2	0	2	248	0.00	29.889 
08:10	30.0	30.0	30.0	89	27.2	0	2	248	0.00	29.888 
08:15	29.8	29.8	29.8	88	26.7	1	6	248	0.00	29.886 
08:20	29.8	29.8	29.8	88	26.7	0	2	270	0.00	29.888 
08:25	30.0	30.0	30.0	88	26.9	0	2	248	0.00	29.889 
08:30	30.0	30.0	30.0	88	26.9	1	3	248	0.00	29.887 
08:35	30.0	30.0	30.0	87	26.6	0	2	248	0.00	29.887 
08:40	30.1	30.1	30.1	87	26.7	0	2	248	0.00	29.887 
08:45	30.3	30.3	30.3	88	27.2	0	1	248	0.00	29.888 
08:50	30.3	30.3	30.3	88	27.2	0	2	248	0.00	29.888 
08:55	30.4	30.4	30.4	88	27.3	0	1	248	0.00	29.889 
09:00	30.6	30.6	30.6	88	27.5	0	2	248	0.00	29.890 
09:05	30.6	30.6	30.6	88	27.5	0	2	292	0.00	29.889 
09:10	30.7	30.7	30.7	88	27.6	1	3	68	0.00	29.890 
09:15	30.7	30.7	30.7	89	27.8	0	1	270	0.00	29.889 
09:20	30.7	30.7	30.7	89	27.8	0	2	292	0.00	29.889 
09:25	30.7	30.7	30.7	89	27.8	0	2	292	0.00	29.890 
09:30	30.9	30.9	30.9	89	28.0	0	2	292	0.00	29.890 
09:35	30.9	30.9	30.9	89	28.0	0	1	315	0.00	29.889 
09:40	30.9	30.9	30.9	89	28.0	0	2	315	0.00	29.889 
09:45	31.0	31.0	31.0	89	28.1	0	2	248	0.00	29.888 
09:50	30.9	30.9	30.9	89	28.0	0	3	248	0.00	29.890 
09:55	31.0	31.0	31.0	89	28.1	0	3	338	0.00	29.891 
10:00	31.0	31.0	31.0	89	28.1	0	3	270	0.00	29.892 
10:05	31.0	31.0	31.0	89	28.1	0	3	270	0.00	29.891 
10:10	31.2	31.2	31.2	89	28.3	0	1	270	0.00	29.890 
10:15	31.3	31.3	31.3	88	28.2	0	3	270	0.00	29.887 
10:20	31.5	31.5	31.5	88	28.4	1	2	112	0.00	29.886 
10:25	31.6	31.6	31.6	88	28.5	1	3	68	0.00	29.888 
10:30	31.6	31.6	31.6	87	28.2	1	4	225	0.00	29.887 
10:35	31.5	31.5	31.5	87	28.1	1	3	112	0.00	29.888 
10:40	31.6	31.6	31.6	87	28.2	1	3	68	0.00	29.889 
10:45	31.8	31.8	31.8	86	28.1	1	4	68	0.00	29.890 
10:50	31.9	31.9	31.9	86	28.2	1	4	270	0.00	29.891 
10:55	32.2	32.2	32.2	86	28.5	1	2	112	0.00	29.890 
11:00	32.2	32.2	32.2	85	28.2	1	4	338	0.00	29.891 
11:05	32.4	32.4	32.4	85	28.4	1	4	112	0.00	29.897 
11:10	32.5	32.5	32.5	85	28.5	0	3	225	0.00	29.900 
11:15	32.7	32.7	32.7	84	28.4	1	4	112	0.00	29.897 
11:20	32.7	32.7	32.7	84	28.4	2	10	248	0.00	29.901 
11:25	32.7	32.7	32.7	83	28.1	1	6	248	0.00	29.898 
11:30	32.8	32.8	32.8	83	28.2	1	4	248	0.01	29.893 
11:35	33.2	33.2	33.2	84	28.9	0	2	270	0.00	29.892 
11:40	33.7	33.7	33.7	82	28.8	1	4	68	0.00	29.890 
11:45	34.0	34.0	34.0	81	28.8	1	6	248	0.00	29.888 
11:50	34.3	34.3	34.3	81	29.1	1	3	248	0.01	29.889 
11:55	34.3	34.3	34.3	80	28.8	1	4	248	0.00	29.888 
12:00	34.7	34.7	34.7	80	29.2	1	3	225	0.00	29.884 
12:05	34.9	34.9	34.9	78	28.7	1	3	248	0.00	29.885 
12:10	35.0	35.0	35.0	77	28.5	2	6	248	0.00	29.884 
12:15	35.0	35.0	35.0	77	28.5	2	6	248	0.01	29.875 
12:20	35.3	35.3	35.3	77	28.8	1	3	45	0.00	29.873 
12:25	35.5	35.5	35.5	76	28.7	2	5	270	0.00	29.878 
12:30	35.5	35.5	35.5	76	28.7	2	5	248	0.00	29.876 
12:35	35.6	35.6	35.6	75	28.5	2	9	248	0.00	29.874 
12:40	35.3	31.9	35.3	75	28.2	4	11	270	0.00	29.872 
12:45	35.5	32.1	35.5	75	28.4	4	10	248	0.01	29.870 
12:50	35.5	35.5	35.5	75	28.4	3	9	248	0.00	29.862 
12:55	35.9	35.9	35.9	75	28.8	2	6	248	0.00	29.864 
13:00	36.2	36.2	36.2	74	28.7	2	6	248	0.00	29.870 
13:05	36.3	36.3	36.3	73	28.5	3	11	248	0.00	29.865 
13:10	36.5	36.5	36.5	74	29.0	2	7	248	0.00	29.858 
13:15	36.3	36.3	36.3	74	28.8	1	6	270	0.00	29.852 
13:20	36.2	36.2	36.2	75	29.1	1	4	270	0.00	29.847 
13:25	36.2	36.2	36.2	75	29.1	2	5	270	0.00	29.840 
13:30	36.2	36.2	36.2	75	29.1	2	8	270	0.00	29.839 
13:35	36.5	36.5	36.5	75	29.3	2	6	248	0.00	29.837 
13:40	36.6	36.6	36.6	74	29.1	3	7	270	0.01	29.840 
13:45	36.9	36.9	36.9	74	29.4	3	6	248	0.00	29.843 
13:50	36.9	36.9	36.9	73	29.1	3	7	248	0.00	29.841 
13:55	36.9	36.9	36.9	73	29.1	3	10	248	0.00	29.840 
14:00	37.0	37.0	37.0	75	29.8	2	6	248	0.00	29.838 
14:05	37.3	37.3	37.3	75	30.1	1	4	248	0.00	29.837 
14:10	37.5	37.5	37.5	73	29.6	3	7	248	0.00	29.834 
14:15	37.5	37.5	37.5	74	30.0	2	7	248	0.00	29.836 
14:20	37.5	37.5	37.5	75	30.3	2	5	270	0.00	29.837 
14:25	38.0	38.0	38.0	75	30.8	2	5	248	0.00	29.837 
14:30	38.5	38.5	38.5	73	30.6	2	10	248	0.00	29.835 
14:35	38.5	38.5	38.5	73	30.6	2	5	248	0.00	29.837 
14:40	38.3	38.3	38.3	72	30.1	3	6	248	0.00	29.839 
14:45	38.3	38.3	38.3	72	30.1	2	6	248	0.01	29.839 
14:50	38.2	38.2	38.2	71	29.6	3	11	248	0.00	29.839 
14:55	38.3	38.3	38.3	71	29.7	3	10	248	0.00	29.841 
15:00	38.5	38.5	38.5	71	29.9	3	6	248	0.00	29.843 
15:05	38.3	38.3	38.3	70	29.4	2	7	248	0.00	29.842 
15:10	38.3	38.3	38.3	70	29.4	3	9	248	0.00	29.848 
15:15	38.3	38.3	38.3	72	30.1	1	6	248	0.00	29.848 
15:20	38.2	38.2	38.2	73	30.3	2	4	225	0.00	29.849 
15:25	38.2	38.2	38.2	72	30.0	2	4	248	0.00	29.844 
15:30	38.2	38.2	38.2	72	30.0	3	5	248	0.00	29.841 
15:35	38.3	38.3	38.3	72	30.1	2	5	248	0.00	29.842 
15:40	38.3	38.3	38.3	72	30.1	2	7	248	0.00	29.843 
15:45	38.3	38.3	38.3	72	30.1	1	4	248	0.00	29.841 
15:50	38.5	38.5	38.5	71	29.9	2	4	248	0.00	29.843 
15:55	38.6	38.6	38.6	71	30.0	1	9	248	0.00	29.842 
16:00	38.6	38.6	38.6	70	29.7	3	7	248	0.00	29.848 
16:05	38.6	38.6	38.6	70	29.7	2	7	225	0.00	29.845 
16:10	38.6	38.6	38.6	69	29.3	3	7	225	0.00	29.847 
16:15	38.5	38.5	38.5	69	29.2	3	6	248	0.00	29.848 
16:20	38.5	38.5	38.5	69	29.2	1	4	270	0.00	29.848 
16:25	38.5	38.5	38.5	70	29.6	2	6	248	0.00	29.846 
16:30	38.5	38.5	38.5	70	29.6	2	6	248	0.00	29.841 
16:35	38.5	38.5	38.5	71	29.9	1	3	248	0.00	29.841 
16:40	38.5	38.5	38.5	71	29.9	1	4	248	0.00	29.840 
16:45	38.3	38.3	38.3	71	29.7	2	5	248	0.00	29.841 
16:50	38.3	38.3	38.3	71	29.7	1	3	248	0.00	29.845 
16:55	38.5	38.5	38.5	72	30.3	1	4	248	0.00	29.846 
17:00	38.3	38.3	38.3	72	30.1	1	5	248	0.00	29.846 
17:05	38.3	38.3	38.3	71	29.7	1	3	248	0.00	29.846 
17:10	38.5	38.5	38.5	72	30.3	0	2	225	0.00	29.843 
17:15	38.3	38.3	38.3	72	30.1	0	2	225	0.00	29.844 
17:20	38.2	38.2	38.2	73	30.3	0	3	225	0.00	29.842 
17:25	38.0	38.0	38.0	73	30.1	0	1	225	0.00	29.845 
17:30	37.8	37.8	37.8	73	29.9	0	3	225	0.00	29.840 
17:35	37.5	37.5	37.5	74	30.0	0	1	225	0.00	29.838 
17:40	37.2	37.2	37.2	74	29.7	0	2	180	0.00	29.839 
17:45	37.0	37.0	37.0	75	29.8	0	2	180	0.00	29.838 
17:50	36.8	36.8	36.8	75	29.6	0	1	180	0.00	29.838 
17:55	36.6	36.6	36.6	76	29.8	0	2	180	0.00	29.836 
18:00	36.6	36.6	36.6	76	29.8	1	3	112	0.00	29.834 
18:05	36.6	36.6	36.6	76	29.8	0	2	112	0.00	29.833 
18:10	36.6	36.6	36.6	76	29.8	0	2	112	0.00	29.834 
18:15	36.5	36.5	36.5	77	30.0	0	1	158	0.00	29.836 
18:20	36.3	36.3	36.3	77	29.8	0	1	158	0.00	29.837 
18:25	36.2	36.2	36.2	78	30.0	0	0	---	0.00	29.838 
18:30	35.9	35.9	35.9	79	30.0	0	0	---	0.00	29.838 
18:35	35.5	35.5	35.5	79	29.6	0	0	---	0.00	29.838 
18:40	35.2	35.2	35.2	79	29.4	0	0	---	0.00	29.840 
18:45	34.9	34.9	34.9	80	29.4	0	0	---	0.00	29.840 
18:50	34.6	34.6	34.6	81	29.4	0	0	---	0.00	29.842 
18:55	34.3	34.3	34.3	82	29.4	0	0	---	0.00	29.843 
19:00	34.1	34.1	34.1	82	29.2	0	0	---	0.00	29.843 
19:05	33.8	33.8	33.8	83	29.2	0	0	---	0.00	29.845 
19:10	33.7	33.7	33.7	83	29.1	0	0	---	0.00	29.845 
19:15	33.5	33.5	33.5	84	29.2	0	0	---	0.00	29.842 
19:20	33.4	33.4	33.4	84	29.1	0	0	---	0.00	29.843 
19:25	33.2	33.2	33.2	85	29.2	0	0	---	0.00	29.844 
19:30	33.1	33.1	33.1	85	29.1	0	0	---	0.00	29.842 
19:35	32.9	32.9	32.9	87	29.5	0	1	158	0.00	29.842 
19:40	33.2	33.2	33.2	87	29.8	0	1	158	0.00	29.842 
19:45	33.2	33.2	33.2	87	29.8	0	0	---	0.00	29.841 
19:50	33.4	33.4	33.4	87	30.0	0	0	---	0.00	29.842 
19:55	33.4	33.4	33.4	87	30.0	0	0	---	0.00	29.843 
20:00	33.4	33.4	33.4	87	30.0	0	0	---	0.00	29.842 
20:05	33.2	33.2	33.2	87	29.8	0	0	---	0.00	29.840 
20:10	33.1	33.1	33.1	87	29.7	0	0	---	0.00	29.839 
20:15	33.1	33.1	33.1	88	29.9	0	0	---	0.00	29.839 
20:20	32.9	32.9	32.9	88	29.7	0	0	---	0.00	29.838 
20:25	32.8	32.8	32.8	88	29.6	0	0	---	0.00	29.838 
20:30	32.7	32.7	32.7	88	29.5	0	0	---	0.00	29.836 
20:35	32.7	32.7	32.7	88	29.5	0	0	---	0.00	29.836 
20:40	32.5	32.5	32.5	88	29.3	0	0	---	0.00	29.834 
20:45	32.5	32.5	32.5	89	29.6	0	0	---	0.00	29.832 
20:50	32.4	32.4	32.4	89	29.5	0	0	---	0.00	29.833 
20:55	32.5	32.5	32.5	90	29.9	0	0	---	0.00	29.833 
21:00	32.7	32.7	32.7	90	30.1	0	1	158	0.00	29.834 
21:05	32.9	32.9	32.9	90	30.3	0	1	158	0.00	29.832 
21:10	33.1	33.1	33.1	90	30.5	0	1	158	0.00	29.832 
21:15	33.4	33.4	33.4	89	30.5	0	1	158	0.00	29.831 
21:20	33.5	33.5	33.5	89	30.6	0	1	158	0.00	29.828 
21:25	33.8	33.8	33.8	89	30.9	0	1	158	0.00	29.827 
21:30	34.0	34.0	34.0	88	30.8	0	1	158	0.00	29.825 
21:35	34.1	34.1	34.1	88	30.9	0	1	158	0.00	29.824 
21:40	34.1	34.1	34.1	88	30.9	0	1	158	0.00	29.823 
21:45	34.1	34.1	34.1	88	30.9	0	1	158	0.00	29.822 
21:50	34.1	34.1	34.1	88	30.9	0	1	158	0.00	29.821 
21:55	34.1	34.1	34.1	88	30.9	0	1	158	0.00	29.821 
22:00	34.1	34.1	34.1	88	30.9	0	0	---	0.00	29.822 
22:05	34.1	34.1	34.1	88	30.9	0	0	---	0.00	29.821 
22:10	34.1	34.1	34.1	88	30.9	0	0	---	0.00	29.820 
22:15	34.0	34.0	34.0	88	30.8	0	0	---	0.00	29.820 
22:20	33.8	33.8	33.8	88	30.6	0	0	---	0.00	29.818 
22:25	33.8	33.8	33.8	88	30.6	0	0	---	0.00	29.816 
22:30	33.7	33.7	33.7	88	30.5	0	0	---	0.00	29.816 
22:35	33.5	33.5	33.5	88	30.3	0	0	---	0.00	29.813 
22:40	33.5	33.5	33.5	89	30.6	0	1	158	0.00	29.809 
22:45	33.7	33.7	33.7	89	30.8	0	0	---	0.00	29.809 
22:50	33.8	33.8	33.8	89	30.9	0	1	158	0.00	29.808 
22:55	34.0	34.0	34.0	88	30.8	0	1	158	0.00	29.807 
23:00	34.0	34.0	34.0	88	30.8	0	0	---	0.00	29.807 
23:05	34.0	34.0	34.0	88	30.8	0	0	---	0.00	29.806 
23:10	34.0	34.0	34.0	88	30.8	0	0	---	0.00	29.805 
23:15	33.8	33.8	33.8	88	30.6	0	0	---	0.00	29.805 
23:20	33.8	33.8	33.8	88	30.6	0	0	---	0.00	29.804 
23:25	33.8	33.8	33.8	88	30.6	0	0	---	0.00	29.804 
23:30	33.7	33.7	33.7	89	30.8	0	0	---	0.00	29.803 
23:35	33.7	33.7	33.7	89	30.8	0	0	---	0.00	29.803 
23:40	33.7	33.7	33.7	89	30.8	0	0	---	0.00	29.801 
23:45	34.0	34.0	34.0	89	31.1	0	1	158	0.00	29.800 
23:50	34.3	34.3	34.3	88	31.1	0	1	158	0.00	29.801 
23:55	34.6	34.6	34.6	88	31.4	0	1	158	0.00	29.803 

CoCoRaHS
IN-AL-39
A2 Web Hosting
Creative Commons License
GoDaddy
Look for:

loaded 2017-12-12 14:57:14 • last modified 2010-11-18 10:43:29
Privacy PolicyDisclaimer
• wx.awcolley.com is powered by PmWiki v.2002016 •
• all content (unless otherwise noted) © 2017 A W Colley